Aviation Digital Data Service (ADDS)

Output produced by METARs form (0209 UTC 11 December 2016)
found at http://www.aviationweather.gov/adds/metars/
 
KSPI 102338Z 1100/1124 14012KT P6SM OVC045 
     FM111300 17012KT P6SM VCSH OVC040 
     FM111600 18014G22KT 4SM -SN BR OVC025 
     FM111800 19014G22KT 3SM -RA BR OVC015